Time;durP1;ratioP1;P1;durP2;ratioP2;P2;SDS_P1;SDS_P2;PMS_P1;PMS_P2;Temp;Humidity;BMP_temperature;BMP_pressure;BME280_temperature;BME280_humidity;BME280_pressure;Samples;Min_cycle;Max_cycle;Signal;HPM_P1;HPM_P2
2023/03/29 00:00:12;;;;;;;5.05;1.88;;;;;;;;;;5066557;28;20035;-68
2023/03/29 00:02:39;;;;;;;3.50;2.05;;;;;;;;;;5068203;28;20020;-68
2023/03/29 00:05:05;;;;;;;4.13;1.63;;;;;;;;;;5047144;28;20043;-68
2023/03/29 00:07:34;;;;;;;3.72;1.55;;;;;;;;;;5046950;28;20517;-68
2023/03/29 00:10:01;;;;;;;3.22;1.75;;;;;;;;;;5046157;28;20056;-68
2023/03/29 00:12:27;;;;;;;3.33;1.75;;;;;;;;;;5046800;28;20076;-68
2023/03/29 00:14:52;;;;;;;3.28;2.08;;;;;;;;;;5049501;28;20653;-68
2023/03/29 00:17:17;;;;;;;2.17;1.50;;;;;;;;;;5063836;28;20037;-69
2023/03/29 00:19:44;;;;;;;5.38;2.10;;;;;;;;;;5066759;28;20708;-69
2023/03/29 00:22:10;;;;;;;3.65;2.00;;;;;;;;;;5066552;28;20040;-68
2023/03/29 00:24:35;;;;;;;4.95;2.20;;;;;;;;;;5080887;28;20644;-68
2023/03/29 00:27:01;;;;;;;2.50;1.63;;;;;;;;;;5067651;28;20027;-69
2023/03/29 00:29:27;;;;;;;5.70;2.00;;;;;;;;;;5065358;28;20115;-69
2023/03/29 00:31:53;;;;;;;3.35;2.30;;;;;;;;;;5064986;28;20135;-69
2023/03/29 00:34:25;;;;;;;3.67;1.90;;;;;;;;;;5067113;28;20040;-69
2023/03/29 00:36:51;;;;;;;3.20;1.50;;;;;;;;;;5065060;28;20056;-69
2023/03/29 00:39:20;;;;;;;7.75;2.03;;;;;;;;;;5063245;28;20963;-69
2023/03/29 00:41:47;;;;;;;3.15;1.90;;;;;;;;;;5061264;28;20021;-69
2023/03/29 00:44:50;;;;;;;3.22;1.77;;;;;;;;;;5046299;28;20393;-69
2023/03/29 00:47:17;;;;;;;4.82;1.98;;;;;;;;;;5061461;28;20040;-68
2023/03/29 00:49:44;;;;;;;6.82;2.00;;;;;;;;;;5064677;28;20044;-69
2023/03/29 00:52:12;;;;;;;4.15;2.00;;;;;;;;;;5066068;28;20510;-68
2023/03/29 00:54:38;;;;;;;6.35;2.10;;;;;;;;;;5057517;28;20080;-68
2023/03/29 00:57:05;;;;;;;5.03;1.92;;;;;;;;;;5066380;28;20709;-68
2023/03/29 00:59:34;;;;;;;6.80;2.65;;;;;;;;;;5064068;28;20115;-69
2023/03/29 01:02:02;;;;;;;4.35;2.00;;;;;;;;;;5063094;28;20037;-69
2023/03/29 01:04:35;;;;;;;5.28;2.08;;;;;;;;;;5056711;28;20033;-68
2023/03/29 01:07:20;;;;;;;3.55;1.77;;;;;;;;;;5066302;28;20101;-69
2023/03/29 01:09:52;;;;;;;3.75;2.00;;;;;;;;;;5064329;28;20032;-68
2023/03/29 01:12:25;;;;;;;2.88;1.63;;;;;;;;;;5065990;28;20539;-69
2023/03/29 01:15:01;;;;;;;2.88;1.85;;;;;;;;;;5066177;28;20077;-68
2023/03/29 01:17:27;;;;;;;4.82;2.30;;;;;;;;;;5065854;28;20032;-69
2023/03/29 01:19:58;;;;;;;4.15;1.83;;;;;;;;;;5066100;28;20040;-68
2023/03/29 01:22:56;;;;;;;6.30;2.10;;;;;;;;;;5065788;28;20036;-69
2023/03/29 01:25:46;;;;;;;8.43;2.20;;;;;;;;;;5063684;28;20580;-69
2023/03/29 01:28:19;;;;;;;3.72;2.00;;;;;;;;;;5064392;28;20519;-69
2023/03/29 01:30:53;;;;;;;4.47;2.03;;;;;;;;;;5063873;28;20546;-69
2023/03/29 01:33:31;;;;;;;4.38;1.90;;;;;;;;;;5065328;28;20137;-69
2023/03/29 01:36:36;;;;;;;2.83;1.90;;;;;;;;;;5065115;28;20028;-68
2023/03/29 01:39:04;;;;;;;4.75;2.13;;;;;;;;;;5000797;28;20046;-69
2023/03/29 01:41:47;;;;;;;6.43;2.22;;;;;;;;;;5053518;28;20604;-69
2023/03/29 01:44:20;;;;;;;3.83;2.10;;;;;;;;;;5057340;28;20074;-68
2023/03/29 01:46:51;;;;;;;4.97;2.08;;;;;;;;;;5059446;28;20159;-68
2023/03/29 01:49:33;;;;;;;7.20;2.08;;;;;;;;;;5065041;28;20032;-69
2023/03/29 01:52:03;;;;;;;4.20;1.92;;;;;;;;;;5065097;28;20125;-68
2023/03/29 01:54:36;;;;;;;3.97;1.80;;;;;;;;;;5062805;28;20024;-69
2023/03/29 01:57:03;;;;;;;4.05;1.92;;;;;;;;;;5064487;28;20134;-69
2023/03/29 01:59:36;;;;;;;5.13;2.10;;;;;;;;;;5065684;28;20128;-69
2023/03/29 02:02:04;;;;;;;5.13;2.10;;;;;;;;;;5061803;28;20507;-69
2023/03/29 02:04:33;;;;;;;6.22;2.13;;;;;;;;;;5061643;28;20032;-68
2023/03/29 02:07:01;;;;;;;6.50;2.22;;;;;;;;;;5065867;28;20577;-69
2023/03/29 02:09:28;;;;;;;4.22;1.80;;;;;;;;;;5062503;28;20028;-69
2023/03/29 02:11:59;;;;;;;5.03;2.20;;;;;;;;;;5065499;28;20028;-69
2023/03/29 02:14:25;;;;;;;3.33;2.10;;;;;;;;;;5062857;28;20033;-69
2023/03/29 02:16:50;;;;;;;5.18;2.17;;;;;;;;;;5064442;28;20032;-69
2023/03/29 02:19:16;;;;;;;4.07;1.80;;;;;;;;;;5064051;28;20040;-68
2023/03/29 02:21:52;;;;;;;4.22;1.95;;;;;;;;;;5064164;28;20044;-69
2023/03/29 02:24:20;;;;;;;4.07;2.08;;;;;;;;;;5060851;28;20071;-68
2023/03/29 02:26:46;;;;;;;4.00;2.08;;;;;;;;;;5061860;28;20025;-68
2023/03/29 02:29:11;;;;;;;6.82;2.22;;;;;;;;;;5065036;28;20642;-69
2023/03/29 02:31:41;;;;;;;4.30;2.08;;;;;;;;;;5064676;28;20032;-68
2023/03/29 02:34:15;;;;;;;5.47;2.10;;;;;;;;;;5064765;28;20543;-69
2023/03/29 02:36:46;;;;;;;4.60;2.03;;;;;;;;;;5062978;28;20047;-69
2023/03/29 02:39:14;;;;;;;5.20;2.08;;;;;;;;;;5065142;28;20026;-69
2023/03/29 02:41:42;;;;;;;7.68;2.17;;;;;;;;;;5063597;28;20153;-69
2023/03/29 02:44:12;;;;;;;5.63;2.08;;;;;;;;;;5064646;28;20119;-69
2023/03/29 02:46:41;;;;;;;6.20;2.38;;;;;;;;;;5065236;28;20047;-69
2023/03/29 02:49:08;;;;;;;6.82;2.28;;;;;;;;;;5058283;28;20457;-69
2023/03/29 02:51:35;;;;;;;6.47;2.13;;;;;;;;;;5065304;28;20179;-69
2023/03/29 02:54:10;;;;;;;4.75;2.00;;;;;;;;;;5065579;28;20048;-68
2023/03/29 02:56:47;;;;;;;7.07;2.65;;;;;;;;;;5062906;28;20093;-69
2023/03/29 02:59:13;;;;;;;3.95;2.13;;;;;;;;;;5043530;28;20048;-68
2023/03/29 03:01:41;;;;;;;4.15;2.10;;;;;;;;;;5044909;28;20036;-68
2023/03/29 03:04:07;;;;;;;4.35;2.30;;;;;;;;;;5052161;28;20047;-68
2023/03/29 03:06:32;;;;;;;6.00;2.65;;;;;;;;;;5054516;28;20033;-69
2023/03/29 03:08:57;;;;;;;4.32;2.15;;;;;;;;;;5047336;28;20037;-69
2023/03/29 03:11:22;;;;;;;4.75;1.77;;;;;;;;;;5047987;28;20119;-68
2023/03/29 03:13:48;;;;;;;3.85;2.40;;;;;;;;;;5063171;28;20040;-68
2023/03/29 03:16:13;;;;;;;3.85;2.42;;;;;;;;;;5061362;28;20494;-69
2023/03/29 03:18:39;;;;;;;3.70;2.00;;;;;;;;;;5066978;28;20032;-69
2023/03/29 03:21:04;;;;;;;8.60;2.20;;;;;;;;;;5067499;28;20036;-69
2023/03/29 03:23:30;;;;;;;8.63;2.38;;;;;;;;;;5068033;28;20048;-69
2023/03/29 03:25:55;;;;;;;7.35;2.38;;;;;;;;;;5067981;28;20033;-69
2023/03/29 03:28:22;;;;;;;4.35;2.15;;;;;;;;;;5067808;28;20043;-68
2023/03/29 03:30:48;;;;;;;8.65;2.35;;;;;;;;;;5066103;28;20587;-69
2023/03/29 03:33:13;;;;;;;5.22;2.10;;;;;;;;;;5059923;28;20024;-69
2023/03/29 03:35:39;;;;;;;5.30;2.38;;;;;;;;;;5047329;28;20036;-69
2023/03/29 03:38:04;;;;;;;4.85;2.42;;;;;;;;;;5048332;28;20091;-69
2023/03/29 03:40:31;;;;;;;4.55;2.25;;;;;;;;;;5062876;28;20047;-68
2023/03/29 03:42:57;;;;;;;6.10;2.08;;;;;;;;;;5067511;28;20086;-69
2023/03/29 03:45:23;;;;;;;5.25;2.13;;;;;;;;;;5067394;28;20036;-69
2023/03/29 03:47:49;;;;;;;6.32;2.50;;;;;;;;;;5067342;28;20107;-68
2023/03/29 03:50:14;;;;;;;5.05;2.33;;;;;;;;;;5066717;28;20036;-69
2023/03/29 03:52:40;;;;;;;7.97;2.60;;;;;;;;;;5066449;28;20036;-68
2023/03/29 03:55:07;;;;;;;5.47;2.53;;;;;;;;;;5067475;28;20703;-69
2023/03/29 03:57:32;;;;;;;6.07;2.42;;;;;;;;;;5067342;28;20116;-69
2023/03/29 03:59:58;;;;;;;4.68;2.22;;;;;;;;;;5067724;28;20068;-68
2023/03/29 04:02:24;;;;;;;3.60;2.53;;;;;;;;;;5066802;28;20074;-69
2023/03/29 04:04:49;;;;;;;5.60;2.70;;;;;;;;;;5067304;28;20392;-69
2023/03/29 04:07:16;;;;;;;8.95;2.55;;;;;;;;;;5066852;28;20555;-69
2023/03/29 04:09:42;;;;;;;4.55;2.20;;;;;;;;;;5066797;28;20032;-69
2023/03/29 04:12:09;;;;;;;5.75;2.40;;;;;;;;;;5067443;28;20066;-69
2023/03/29 04:14:34;;;;;;;4.25;2.22;;;;;;;;;;5066593;28;20091;-68
2023/03/29 04:17:00;;;;;;;6.95;2.97;;;;;;;;;;5067097;28;20068;-68
2023/03/29 04:19:25;;;;;;;5.45;2.28;;;;;;;;;;5063382;28;20116;-69
2023/03/29 04:21:51;;;;;;;9.30;2.50;;;;;;;;;;5063525;28;20455;-69
2023/03/29 04:24:16;;;;;;;4.57;2.17;;;;;;;;;;5066539;28;20024;-69
2023/03/29 04:26:42;;;;;;;6.95;2.53;;;;;;;;;;5065191;28;20559;-68
2023/03/29 04:29:08;;;;;;;4.50;2.00;;;;;;;;;;5063412;28;20037;-68
2023/03/29 04:31:33;;;;;;;6.60;2.40;;;;;;;;;;5075647;28;20415;-68
2023/03/29 04:33:59;;;;;;;4.30;2.50;;;;;;;;;;5087165;28;20025;-68
2023/03/29 04:36:24;;;;;;;5.30;2.25;;;;;;;;;;5084774;28;20027;-68
2023/03/29 04:38:53;;;;;;;6.82;2.75;;;;;;;;;;5087472;28;20415;-68
2023/03/29 04:41:19;;;;;;;5.78;1.27;;;;;;;;;;5086866;28;20134;-68
2023/03/29 04:43:45;;;;;;;6.50;2.42;;;;;;;;;;5086671;28;20122;-68
2023/03/29 04:46:11;;;;;;;6.30;2.17;;;;;;;;;;5085494;28;20957;-68
2023/03/29 04:48:37;;;;;;;8.10;2.83;;;;;;;;;;5086220;28;20077;-68
2023/03/29 04:51:03;;;;;;;7.95;2.45;;;;;;;;;;5087206;28;20024;-68
2023/03/29 04:53:28;;;;;;;4.22;2.40;;;;;;;;;;5085737;28;20032;-68
2023/03/29 04:55:54;;;;;;;6.93;2.80;;;;;;;;;;5086035;28;20040;-68
2023/03/29 04:58:20;;;;;;;5.18;2.60;;;;;;;;;;5085285;28;20131;-68
2023/03/29 05:00:45;;;;;;;5.00;2.53;;;;;;;;;;5085564;28;20036;-68
2023/03/29 05:03:13;;;;;;;3.95;2.53;;;;;;;;;;5086401;28;20452;-68
2023/03/29 05:05:39;;;;;;;5.07;2.47;;;;;;;;;;5065770;28;20894;-68
2023/03/29 05:08:04;;;;;;;4.13;2.20;;;;;;;;;;5065881;28;20044;-68
2023/03/29 05:10:30;;;;;;;2.67;1.83;;;;;;;;;;5065822;28;20068;-68
2023/03/29 05:12:55;;;;;;;6.35;2.85;;;;;;;;;;5059423;28;20057;-68
2023/03/29 05:15:21;;;;;;;5.18;2.60;;;;;;;;;;5063102;28;20024;-68
2023/03/29 05:17:47;;;;;;;7.72;2.47;;;;;;;;;;5066631;28;20027;-68
2023/03/29 05:20:13;;;;;;;4.80;2.67;;;;;;;;;;5063109;28;20418;-69
2023/03/29 05:22:39;;;;;;;4.88;2.45;;;;;;;;;;5065924;28;20037;-68
2023/03/29 05:25:05;;;;;;;5.07;2.67;;;;;;;;;;5064371;28;20055;-68
2023/03/29 05:27:32;;;;;;;9.35;2.35;;;;;;;;;;5063502;28;20036;-68
2023/03/29 05:29:57;;;;;;;4.63;2.25;;;;;;;;;;5065986;28;20024;-68
2023/03/29 05:32:23;;;;;;;6.93;2.47;;;;;;;;;;5065489;28;20060;-69
2023/03/29 05:34:48;;;;;;;4.57;2.60;;;;;;;;;;5065452;28;20032;-68
2023/03/29 05:37:13;;;;;;;4.93;2.50;;;;;;;;;;5065442;28;20032;-68
2023/03/29 05:39:39;;;;;;;5.28;2.45;;;;;;;;;;5065641;28;20032;-68
2023/03/29 05:42:04;;;;;;;6.97;2.08;;;;;;;;;;5066422;28;20054;-68
2023/03/29 05:44:30;;;;;;;6.45;2.40;;;;;;;;;;5065849;28;20071;-68
2023/03/29 05:46:56;;;;;;;3.70;2.20;;;;;;;;;;5064960;28;20043;-68
2023/03/29 05:49:21;;;;;;;6.00;2.67;;;;;;;;;;5057010;28;20033;-67
2023/03/29 05:51:47;;;;;;;8.27;2.72;;;;;;;;;;5061445;28;20037;-68
2023/03/29 05:54:12;;;;;;;6.22;2.45;;;;;;;;;;5059678;28;20027;-67
2023/03/29 05:56:38;;;;;;;4.68;2.30;;;;;;;;;;5060646;28;20036;-67
2023/03/29 05:59:03;;;;;;;6.25;2.67;;;;;;;;;;5057740;28;20512;-68
2023/03/29 06:01:29;;;;;;;4.72;2.58;;;;;;;;;;5055238;28;20102;-68
2023/03/29 06:03:56;;;;;;;7.22;2.83;;;;;;;;;;5057721;28;20582;-68
2023/03/29 06:06:21;;;;;;;5.63;2.80;;;;;;;;;;5059868;28;20044;-68
2023/03/29 06:08:47;;;;;;;7.03;2.60;;;;;;;;;;5062531;28;20035;-68
2023/03/29 06:11:12;;;;;;;6.57;2.80;;;;;;;;;;5062518;28;20033;-68
2023/03/29 06:13:38;;;;;;;7.03;2.50;;;;;;;;;;5053969;28;20320;-68
2023/03/29 06:16:08;;;;;;;7.43;2.30;;;;;;;;;;5062172;28;20036;-68
2023/03/29 06:18:34;;;;;;;4.43;2.13;;;;;;;;;;5063767;28;20135;-69
2023/03/29 06:21:03;;;;;;;5.32;2.97;;;;;;;;;;5065538;28;20123;-68
2023/03/29 06:23:29;;;;;;;5.03;2.13;;;;;;;;;;5064310;28;20036;-68
2023/03/29 06:25:55;;;;;;;5.93;2.72;;;;;;;;;;5064539;28;20059;-68
2023/03/29 06:28:22;;;;;;;3.80;2.17;;;;;;;;;;5064629;28;20094;-69
2023/03/29 06:30:49;;;;;;;7.20;2.97;;;;;;;;;;5062439;28;20039;-68
2023/03/29 06:33:15;;;;;;;7.72;3.00;;;;;;;;;;5062587;28;20488;-68
2023/03/29 06:35:46;;;;;;;7.05;2.45;;;;;;;;;;5063382;28;20027;-68
2023/03/29 06:38:13;;;;;;;5.57;2.83;;;;;;;;;;5066226;28;20036;-68
2023/03/29 06:40:39;;;;;;;7.10;2.88;;;;;;;;;;5068292;28;20040;-68
2023/03/29 06:43:05;;;;;;;4.47;2.70;;;;;;;;;;5066882;28;20064;-68
2023/03/29 06:45:36;;;;;;;5.72;2.60;;;;;;;;;;5063403;28;20616;-68
2023/03/29 06:48:02;;;;;;;7.40;3.17;;;;;;;;;;5068616;28;20025;-68
2023/03/29 06:50:28;;;;;;;5.22;2.65;;;;;;;;;;5067999;28;20044;-69
2023/03/29 06:52:53;;;;;;;5.18;2.72;;;;;;;;;;5067840;28;20087;-69
2023/03/29 06:55:20;;;;;;;5.38;2.10;;;;;;;;;;5066680;28;20113;-69
2023/03/29 06:57:46;;;;;;;6.38;2.85;;;;;;;;;;5066972;28;20044;-69
2023/03/29 07:00:18;;;;;;;7.35;2.90;;;;;;;;;;5064450;28;21674;-71
2023/03/29 07:02:44;;;;;;;4.45;2.38;;;;;;;;;;5066733;28;20663;-69
2023/03/29 07:05:12;;;;;;;7.43;2.97;;;;;;;;;;5067902;28;20045;-69
2023/03/29 07:07:53;;;;;;;5.15;2.40;;;;;;;;;;5065519;28;20037;-69
2023/03/29 07:10:20;;;;;;;9.10;2.65;;;;;;;;;;5065807;28;20202;-69
2023/03/29 07:12:50;;;;;;;5.10;2.40;;;;;;;;;;5067155;28;20101;-69
2023/03/29 07:15:16;;;;;;;5.88;2.63;;;;;;;;;;5067394;28;20031;-68
2023/03/29 07:17:41;;;;;;;4.70;2.35;;;;;;;;;;5068632;28;20032;-68
2023/03/29 07:20:11;;;;;;;4.85;2.55;;;;;;;;;;5067066;28;20040;-69
2023/03/29 07:22:37;;;;;;;4.03;2.50;;;;;;;;;;5051932;28;20057;-69
2023/03/29 07:25:02;;;;;;;8.27;3.00;;;;;;;;;;5047465;28;20099;-69
2023/03/29 07:27:28;;;;;;;4.25;2.42;;;;;;;;;;5048225;28;20531;-69
2023/03/29 07:29:53;;;;;;;7.75;2.83;;;;;;;;;;5061385;28;20028;-69
2023/03/29 07:32:18;;;;;;;6.97;2.88;;;;;;;;;;5067011;28;20033;-69
2023/03/29 07:34:45;;;;;;;10.00;3.13;;;;;;;;;;5066840;28;20033;-69
2023/03/29 07:37:10;;;;;;;7.93;3.15;;;;;;;;;;5067195;28;20040;-69
2023/03/29 07:39:36;;;;;;;6.05;2.55;;;;;;;;;;5068030;28;20414;-69
2023/03/29 07:42:01;;;;;;;7.28;2.90;;;;;;;;;;5065561;28;20040;-69
2023/03/29 07:44:28;;;;;;;6.95;2.63;;;;;;;;;;5067377;28;20037;-69
2023/03/29 07:46:53;;;;;;;4.70;2.80;;;;;;;;;;5067583;28;20079;-69
2023/03/29 07:49:19;;;;;;;6.18;2.83;;;;;;;;;;5067388;28;20721;-69
2023/03/29 07:51:44;;;;;;;7.80;3.10;;;;;;;;;;5066997;28;20104;-69
2023/03/29 07:54:09;;;;;;;3.85;1.83;;;;;;;;;;5067731;28;20108;-69
2023/03/29 07:56:35;;;;;;;8.50;3.10;;;;;;;;;;5067644;28;20016;-69
2023/03/29 07:59:00;;;;;;;5.25;2.80;;;;;;;;;;5067322;28;20044;-69
2023/03/29 08:01:26;;;;;;;7.78;2.45;;;;;;;;;;5065962;28;20029;-69
2023/03/29 08:03:51;;;;;;;4.15;2.45;;;;;;;;;;5066341;28;20534;-69
2023/03/29 08:06:17;;;;;;;4.45;2.33;;;;;;;;;;5064271;28;20462;-70
2023/03/29 08:08:42;;;;;;;5.53;2.83;;;;;;;;;;5064797;28;20027;-69
2023/03/29 08:11:08;;;;;;;5.20;3.00;;;;;;;;;;5066554;28;20046;-69
2023/03/29 08:13:34;;;;;;;6.88;3.08;;;;;;;;;;5078669;28;20044;-70
2023/03/29 08:16:00;;;;;;;7.57;3.25;;;;;;;;;;5074008;28;20546;-69
2023/03/29 08:18:25;;;;;;;5.28;2.60;;;;;;;;;;5066802;28;20032;-69
2023/03/29 08:20:51;;;;;;;6.10;2.50;;;;;;;;;;5065411;28;20024;-69
2023/03/29 08:23:16;;;;;;;6.20;3.05;;;;;;;;;;5067381;28;20041;-69
2023/03/29 08:25:42;;;;;;;5.32;2.88;;;;;;;;;;5066288;28;20044;-69
2023/03/29 08:28:07;;;;;;;4.15;2.63;;;;;;;;;;5065103;28;20105;-69
2023/03/29 08:30:32;;;;;;;5.28;2.80;;;;;;;;;;5066035;28;20035;-69
2023/03/29 08:32:58;;;;;;;7.00;3.20;;;;;;;;;;5064039;28;20032;-69
2023/03/29 08:35:23;;;;;;;7.07;3.00;;;;;;;;;;5063181;28;20566;-69
2023/03/29 08:37:48;;;;;;;7.25;2.95;;;;;;;;;;5064905;28;20036;-69
2023/03/29 08:40:22;;;;;;;4.60;2.75;;;;;;;;;;5066397;28;20040;-69
2023/03/29 08:43:09;;;;;;;4.82;2.83;;;;;;;;;;5066181;28;20024;-70
2023/03/29 08:45:39;;;;;;;6.72;3.25;;;;;;;;;;5061174;28;20769;-69
2023/03/29 08:48:17;;;;;;;4.32;2.70;;;;;;;;;;5060803;28;20104;-70
2023/03/29 08:50:51;;;;;;;5.88;2.75;;;;;;;;;;5059254;28;20109;-69
2023/03/29 08:53:31;;;;;;;5.53;3.22;;;;;;;;;;5062534;28;20111;-69
2023/03/29 08:56:00;;;;;;;7.72;3.17;;;;;;;;;;5065409;28;20052;-69
2023/03/29 08:58:29;;;;;;;12.65;4.72;;;;;;;;;;5065014;28;20055;-69
2023/03/29 09:00:56;;;;;;;7.15;3.45;;;;;;;;;;5065164;28;20052;-70
2023/03/29 09:03:28;;;;;;;6.47;3.00;;;;;;;;;;5063646;28;20020;-69
2023/03/29 09:06:03;;;;;;;5.80;3.38;;;;;;;;;;5067494;28;20690;-70
2023/03/29 09:08:28;;;;;;;5.50;2.83;;;;;;;;;;5062832;28;20063;-69
2023/03/29 09:11:18;;;;;;;7.80;3.47;;;;;;;;;;5072064;28;20546;-70
2023/03/29 09:14:14;;;;;;;7.25;3.35;;;;;;;;;;5066170;28;20514;-69
2023/03/29 09:16:47;;;;;;;6.20;3.08;;;;;;;;;;5066140;28;20041;-69
2023/03/29 09:19:39;;;;;;;;;;;;;;;;;;5067530;28;20485;-69
2023/03/29 09:22:21;;;;;;;4.65;2.65;;;;;;;;;;5040815;28;19997;-69
2023/03/29 09:25:08;;;;;;;6.78;3.40;;;;;;;;;;5063720;28;20131;-69
2023/03/29 09:27:42;;;;;;;8.07;3.90;;;;;;;;;;5065226;28;20415;-69
2023/03/29 09:30:52;;;;;;;6.13;3.42;;;;;;;;;;5065846;28;20473;-69
2023/03/29 09:33:41;;;;;;;8.77;3.50;;;;;;;;;;4986957;28;20046;-69
2023/03/29 09:36:20;;;;;;;8.15;3.50;;;;;;;;;;5003919;28;20032;-69
2023/03/29 09:38:49;;;;;;;7.13;3.20;;;;;;;;;;5045407;28;20044;-70
2023/03/29 09:41:35;;;;;;;8.80;3.40;;;;;;;;;;5064425;28;20047;-69
2023/03/29 09:44:06;;;;;;;5.93;3.03;;;;;;;;;;5063011;28;20027;-69
2023/03/29 09:46:51;;;;;;;3.85;2.50;;;;;;;;;;5066118;28;20537;-69
2023/03/29 09:49:22;;;;;;;6.10;2.55;;;;;;;;;;5064813;28;20078;-70
2023/03/29 09:51:48;;;;;;;5.20;2.80;;;;;;;;;;5066225;28;20033;-70
2023/03/29 09:54:14;;;;;;;4.97;2.78;;;;;;;;;;5064666;28;20074;-70
2023/03/29 09:56:39;;;;;;;5.07;2.78;;;;;;;;;;5066931;28;20028;-69
2023/03/29 09:59:06;;;;;;;5.28;2.75;;;;;;;;;;5066311;28;20149;-69
2023/03/29 10:01:37;;;;;;;5.25;3.15;;;;;;;;;;5063094;28;20048;-70
2023/03/29 10:04:06;;;;;;;4.25;2.47;;;;;;;;;;5063213;28;20056;-70
2023/03/29 10:06:33;;;;;;;4.35;2.53;;;;;;;;;;5064735;28;20021;-70
2023/03/29 10:08:58;;;;;;;5.07;2.83;;;;;;;;;;5065675;28;20016;-69
2023/03/29 10:11:33;;;;;;;4.30;2.50;;;;;;;;;;5062536;28;20108;-69
2023/03/29 10:14:04;;;;;;;5.63;2.78;;;;;;;;;;5067264;28;20587;-70
2023/03/29 10:16:35;;;;;;;4.15;2.60;;;;;;;;;;5067657;28;20037;-70
2023/03/29 10:19:34;;;;;;;9.15;2.30;;;;;;;;;;5070217;28;20032;-69
2023/03/29 10:22:03;;;;;;;2.90;1.80;;;;;;;;;;5068681;28;20028;-70
2023/03/29 10:24:29;;;;;;;2.05;1.50;;;;;;;;;;5069205;28;20020;-70
2023/03/29 10:27:08;;;;;;;2.05;1.13;;;;;;;;;;5070126;28;20070;-69
2023/03/29 10:29:39;;;;;;;2.47;1.00;;;;;;;;;;5070684;28;20028;-70
2023/03/29 10:32:21;;;;;;;1.58;1.13;;;;;;;;;;5065223;28;20035;-70
2023/03/29 10:34:48;;;;;;;6.07;1.80;;;;;;;;;;5067007;28;20542;-70
2023/03/29 10:37:17;;;;;;;2.47;1.50;;;;;;;;;;5068589;28;20457;-69
2023/03/29 10:39:44;;;;;;;1.55;1.30;;;;;;;;;;5067929;28;20083;-69
2023/03/29 10:42:13;;;;;;;3.92;1.45;;;;;;;;;;5068753;28;20089;-69
2023/03/29 10:44:39;;;;;;;2.70;1.60;;;;;;;;;;5069138;28;20048;-70
2023/03/29 10:47:15;;;;;;;4.32;1.60;;;;;;;;;;5069482;28;20040;-70
2023/03/29 10:49:45;;;;;;;2.97;1.80;;;;;;;;;;5066118;28;20787;-70
2023/03/29 10:52:13;;;;;;;5.03;1.90;;;;;;;;;;5067325;28;20037;-70
2023/03/29 10:54:39;;;;;;;3.03;1.80;;;;;;;;;;5065590;28;20567;-70
2023/03/29 10:57:09;;;;;;;2.85;1.73;;;;;;;;;;5068122;28;20033;-70
2023/03/29 10:59:34;;;;;;;2.83;1.98;;;;;;;;;;5069463;28;20064;-70
2023/03/29 11:02:06;;;;;;;5.20;1.90;;;;;;;;;;5064987;28;20101;-70
2023/03/29 11:04:41;;;;;;;4.15;2.08;;;;;;;;;;5065484;28;20494;-70
2023/03/29 11:07:27;;;;;;;2.78;1.85;;;;;;;;;;5068743;28;20053;-70
2023/03/29 11:10:02;;;;;;;3.60;1.67;;;;;;;;;;5067056;28;20516;-70
2023/03/29 11:12:37;;;;;;;3.38;1.38;;;;;;;;;;5061869;28;20029;-70
2023/03/29 11:15:31;;;;;;;1.65;1.35;;;;;;;;;;5074566;28;20503;-69
2023/03/29 11:18:19;;;;;;;3.70;1.67;;;;;;;;;;5081210;28;20051;-69
2023/03/29 11:21:06;;;;;;;1.85;1.30;;;;;;;;;;5067890;28;20501;-69
2023/03/29 11:23:53;;;;;;;2.60;1.65;;;;;;;;;;5063675;28;20033;-69
2023/03/29 11:26:23;;;;;;;3.60;1.30;;;;;;;;;;5067319;28;20043;-69
2023/03/29 11:28:57;;;;;;;1.88;1.30;;;;;;;;;;5067229;28;20044;-69
2023/03/29 11:31:27;;;;;;;1.92;1.40;;;;;;;;;;5066515;28;20103;-69
2023/03/29 11:34:24;;;;;;;3.17;1.42;;;;;;;;;;5065657;28;20131;-69
2023/03/29 11:37:14;;;;;;;2.25;1.40;;;;;;;;;;5066839;28;20121;-69
2023/03/29 11:39:49;;;;;;;2.45;1.23;;;;;;;;;;5064893;28;20060;-69
2023/03/29 11:42:23;;;;;;;2.20;1.50;;;;;;;;;;5064465;28;20032;-69
2023/03/29 11:44:52;;;;;;;2.17;1.52;;;;;;;;;;5067735;28;20115;-69
2023/03/29 11:47:21;;;;;;;2.05;1.50;;;;;;;;;;5065500;28;20032;-69
2023/03/29 11:49:53;;;;;;;2.28;1.33;;;;;;;;;;5066653;28;20043;-69
2023/03/29 11:52:22;;;;;;;2.38;1.30;;;;;;;;;;5067557;28;20037;-69
2023/03/29 11:54:50;;;;;;;2.90;1.30;;;;;;;;;;5060458;28;20048;-68
2023/03/29 11:57:24;;;;;;;3.75;1.70;;;;;;;;;;5061013;28;20032;-69
2023/03/29 12:00:04;;;;;;;3.67;1.73;;;;;;;;;;5053818;28;20044;-69
2023/03/29 12:02:38;;;;;;;2.22;1.70;;;;;;;;;;5059398;28;20040;-69
2023/03/29 12:05:14;;;;;;;2.20;1.52;;;;;;;;;;5045902;28;20044;-69
2023/03/29 12:07:49;;;;;;;3.17;1.80;;;;;;;;;;5060969;28;20690;-69
2023/03/29 12:10:22;;;;;;;4.40;2.55;;;;;;;;;;5086631;27;20497;-69
2023/03/29 12:12:56;;;;;;;4.30;1.95;;;;;;;;;;5064756;28;20055;-69
2023/03/29 12:15:25;;;;;;;2.47;1.75;;;;;;;;;;5055786;28;20118;-69
2023/03/29 12:18:16;;;;;;;3.58;1.75;;;;;;;;;;5063589;28;20536;-69
2023/03/29 12:20:41;;;;;;;4.78;2.10;;;;;;;;;;5058325;28;20045;-69
2023/03/29 12:23:11;;;;;;;6.18;2.20;;;;;;;;;;5060495;28;20033;-69
2023/03/29 12:25:51;;;;;;;4.53;2.30;;;;;;;;;;5061204;28;20039;-69
2023/03/29 12:28:22;;;;;;;5.57;2.40;;;;;;;;;;5061542;28;20084;-69
2023/03/29 12:31:09;;;;;;;4.95;1.90;;;;;;;;;;5061900;28;20094;-69
2023/03/29 12:33:56;;;;;;;5.07;2.45;;;;;;;;;;5061799;28;20033;-69
2023/03/29 12:36:59;;;;;;;2.42;1.83;;;;;;;;;;5059271;28;20442;-69
2023/03/29 12:39:27;;;;;;;4.72;2.40;;;;;;;;;;5059653;28;20488;-70
2023/03/29 12:41:53;;;;;;;3.78;1.98;;;;;;;;;;5064779;28;20016;-69
2023/03/29 12:44:22;;;;;;;3.30;2.40;;;;;;;;;;5062970;28;20040;-70
2023/03/29 12:46:53;;;;;;;5.20;2.78;;;;;;;;;;5063471;28;20047;-69
2023/03/29 12:49:28;;;;;;;5.95;2.40;;;;;;;;;;5065007;28;20037;-69
2023/03/29 12:51:57;;;;;;;3.50;2.15;;;;;;;;;;5059899;28;20044;-69
2023/03/29 12:54:27;;;;;;;5.55;2.35;;;;;;;;;;5062063;28;20070;-69
2023/03/29 12:56:55;;;;;;;3.60;2.17;;;;;;;;;;5061499;28;20460;-69
2023/03/29 12:59:42;;;;;;;3.17;2.05;;;;;;;;;;5062757;28;20055;-69
2023/03/29 13:02:33;;;;;;;3.45;2.08;;;;;;;;;;5061232;28;20036;-69
2023/03/29 13:04:59;;;;;;;3.72;2.50;;;;;;;;;;5073423;28;20044;-69
2023/03/29 13:07:25;;;;;;;5.25;2.33;;;;;;;;;;5058507;28;20032;-70
2023/03/29 13:09:51;;;;;;;3.15;2.00;;;;;;;;;;5059876;28;20049;-69
2023/03/29 13:12:26;;;;;;;3.65;2.50;;;;;;;;;;5062681;28;20036;-69
2023/03/29 13:14:58;;;;;;;5.82;2.50;;;;;;;;;;5054680;28;20028;-70
2023/03/29 13:17:48;;;;;;;4.30;2.17;;;;;;;;;;5062442;28;20036;-70
2023/03/29 13:20:31;;;;;;;7.90;2.17;;;;;;;;;;5058461;28;20282;-70
2023/03/29 13:22:57;;;;;;;4.32;2.50;;;;;;;;;;5060765;28;20040;-70
2023/03/29 13:25:54;;;;;;;3.63;2.20;;;;;;;;;;5060348;28;20053;-69
2023/03/29 13:28:25;;;;;;;4.78;2.30;;;;;;;;;;5059892;28;20036;-70
2023/03/29 13:30:58;;;;;;;5.35;2.35;;;;;;;;;;5058838;28;20056;-70
2023/03/29 13:33:45;;;;;;;4.38;2.45;;;;;;;;;;5058794;28;20111;-70
2023/03/29 13:36:14;;;;;;;3.80;2.22;;;;;;;;;;5062994;28;20041;-70
2023/03/29 13:38:48;;;;;;;7.38;2.83;;;;;;;;;;5062820;28;20056;-69
2023/03/29 13:41:43;;;;;;;3.53;2.50;;;;;;;;;;5057756;28;20040;-70
2023/03/29 13:44:21;;;;;;;6.57;2.83;;;;;;;;;;5062900;28;20036;-70
2023/03/29 13:46:47;;;;;;;4.95;2.70;;;;;;;;;;5059728;28;20813;-70
2023/03/29 13:49:28;;;;;;;5.72;2.83;;;;;;;;;;5058690;28;20076;-70
2023/03/29 13:51:53;;;;;;;3.47;2.25;;;;;;;;;;5061153;28;20040;-69
2023/03/29 13:54:33;;;;;;;4.22;2.60;;;;;;;;;;5063758;28;20028;-69
2023/03/29 13:57:16;;;;;;;5.45;3.15;;;;;;;;;;5065242;28;20638;-69
2023/03/29 13:59:52;;;;;;;6.13;3.05;;;;;;;;;;5062021;28;20048;-69
2023/03/29 14:02:41;;;;;;;5.38;2.90;;;;;;;;;;5063377;28;20047;-69
2023/03/29 14:05:11;;;;;;;5.88;2.80;;;;;;;;;;5054570;28;20047;-69
2023/03/29 14:07:40;;;;;;;4.82;2.25;;;;;;;;;;5055441;28;20059;-69
2023/03/29 14:10:06;;;;;;;5.93;3.42;;;;;;;;;;5064950;28;20036;-69
2023/03/29 14:12:36;;;;;;;5.40;3.40;;;;;;;;;;5071674;28;20039;-70
2023/03/29 14:15:04;;;;;;;7.07;3.35;;;;;;;;;;5066523;28;20020;-69
2023/03/29 14:17:30;;;;;;;6.93;4.03;;;;;;;;;;5065362;28;20036;-69
2023/03/29 14:19:58;;;;;;;7.93;3.75;;;;;;;;;;5065703;28;20078;-70
2023/03/29 14:22:29;;;;;;;10.20;3.92;;;;;;;;;;5064258;28;20515;-69
2023/03/29 14:24:57;;;;;;;6.55;3.60;;;;;;;;;;5065949;28;20032;-69
2023/03/29 14:27:22;;;;;;;7.97;3.80;;;;;;;;;;5063613;28;20123;-70
2023/03/29 14:29:49;;;;;;;6.20;3.15;;;;;;;;;;5064898;28;20337;-69
2023/03/29 14:32:28;;;;;;;7.75;4.07;;;;;;;;;;5065604;28;20132;-70
2023/03/29 14:34:53;;;;;;;7.53;3.85;;;;;;;;;;5065022;28;20407;-70
2023/03/29 14:37:27;;;;;;;8.20;3.78;;;;;;;;;;5065307;28;20032;-69
2023/03/29 14:39:53;;;;;;;7.97;3.90;;;;;;;;;;5065954;28;20038;-69
2023/03/29 14:42:23;;;;;;;7.65;3.63;;;;;;;;;;5063343;28;20108;-69
2023/03/29 14:44:49;;;;;;;7.57;3.70;;;;;;;;;;5064686;28;20032;-70
2023/03/29 14:47:25;;;;;;;12.02;4.30;;;;;;;;;;5064625;28;20036;-69
2023/03/29 14:49:53;;;;;;;8.85;3.95;;;;;;;;;;5063369;28;20043;-70
2023/03/29 14:52:19;;;;;;;9.00;3.88;;;;;;;;;;5064830;28;20047;-70
2023/03/29 14:54:49;;;;;;;6.82;3.80;;;;;;;;;;5064253;28;20040;-69
2023/03/29 14:57:17;;;;;;;7.95;3.75;;;;;;;;;;5065697;28;20119;-70
2023/03/29 14:59:47;;;;;;;7.95;4.15;;;;;;;;;;5065994;28;20132;-70
2023/03/29 15:02:31;;;;;;;7.53;3.63;;;;;;;;;;5065969;28;20404;-69